Time;durP1;ratioP1;P1;durP2;ratioP2;P2;SDS_P1;SDS_P2;PMS_P1;PMS_P2;Temp;Humidity;BMP_temperature;BMP_pressure;BME280_temperature;BME280_humidity;BME280_pressure;Samples;Min_cycle;Max_cycle;Signal;HPM_P1;HPM_P2
2022/07/03 00:01:10;;;;;;;5.53;3.10;;;;;;;;;;4968998;28;20050;-60
2022/07/03 00:03:36;;;;;;;6.97;2.80;;;;;;;;;;4969340;28;20436;-60
2022/07/03 00:06:02;;;;;;;7.73;3.20;;;;;;;;;;4970266;28;20105;-60
2022/07/03 00:08:28;;;;;;;4.77;3.53;;;;;;;;;;4970032;28;20082;-60
2022/07/03 00:10:54;;;;;;;8.37;4.00;;;;;;;;;;4970391;28;20053;-60
2022/07/03 00:13:20;;;;;;;6.50;3.20;;;;;;;;;;4970063;28;20421;-60
2022/07/03 00:15:46;;;;;;;8.90;3.73;;;;;;;;;;4970380;28;20527;-60
2022/07/03 00:18:12;;;;;;;6.60;3.33;;;;;;;;;;4970325;28;20051;-60
2022/07/03 00:20:40;;;;;;;4.50;2.90;;;;;;;;;;4969716;28;20047;-59
2022/07/03 00:23:10;;;;;;;7.33;3.13;;;;;;;;;;4968601;28;20161;-60
2022/07/03 00:25:37;;;;;;;8.47;3.70;;;;;;;;;;4970141;28;20051;-60
2022/07/03 00:28:04;;;;;;;5.50;4.27;;;;;;;;;;4969867;28;20584;-60
2022/07/03 00:30:30;;;;;;;6.97;3.53;;;;;;;;;;4969061;28;20035;-59
2022/07/03 00:32:56;;;;;;;8.07;4.40;;;;;;;;;;4970017;28;20451;-60
2022/07/03 00:35:22;;;;;;;6.90;4.73;;;;;;;;;;4968988;28;20039;-60
2022/07/03 00:37:49;;;;;;;7.13;5.00;;;;;;;;;;4969987;28;20175;-60
2022/07/03 00:40:15;;;;;;;8.57;4.97;;;;;;;;;;4969577;28;20062;-60
2022/07/03 00:42:41;;;;;;;7.30;5.37;;;;;;;;;;4969314;28;20077;-60
2022/07/03 00:45:07;;;;;;;7.23;4.63;;;;;;;;;;4969435;28;20047;-60
2022/07/03 00:47:35;;;;;;;7.37;5.47;;;;;;;;;;4969618;28;20054;-60
2022/07/03 00:50:05;;;;;;;8.63;5.73;;;;;;;;;;4969966;28;20178;-60
2022/07/03 00:52:33;;;;;;;7.63;6.23;;;;;;;;;;4969387;28;20038;-60
2022/07/03 00:55:00;;;;;;;6.40;5.33;;;;;;;;;;4969386;28;20101;-60
2022/07/03 00:57:27;;;;;;;9.80;6.27;;;;;;;;;;4969252;28;20047;-60
2022/07/03 00:59:53;;;;;;;10.37;6.70;;;;;;;;;;4969381;28;20039;-60
2022/07/03 01:02:25;;;;;;;14.20;6.83;;;;;;;;;;4969315;28;20057;-60
2022/07/03 01:05:03;;;;;;;9.67;7.23;;;;;;;;;;4969523;28;20050;-60
2022/07/03 01:07:38;;;;;;;8.23;6.90;;;;;;;;;;4969353;28;20133;-60
2022/07/03 01:10:05;;;;;;;11.10;6.80;;;;;;;;;;4968994;28;20043;-60
2022/07/03 01:12:31;;;;;;;9.13;6.17;;;;;;;;;;4969055;28;20039;-60
2022/07/03 01:15:03;;;;;;;7.40;6.07;;;;;;;;;;4969650;28;20098;-60
2022/07/03 01:17:34;;;;;;;10.23;7.53;;;;;;;;;;4969348;28;20043;-60
2022/07/03 01:20:04;;;;;;;9.80;6.40;;;;;;;;;;4961428;28;20070;-60
2022/07/03 01:22:35;;;;;;;7.40;4.23;;;;;;;;;;4969472;28;20592;-60
2022/07/03 01:25:16;;;;;;;7.50;6.27;;;;;;;;;;4968695;28;20044;-60
2022/07/03 01:27:45;;;;;;;6.97;6.27;;;;;;;;;;4969096;28;21091;-60
2022/07/03 01:30:12;;;;;;;7.80;6.33;;;;;;;;;;4968952;28;20051;-60
2022/07/03 01:32:51;;;;;;;7.87;6.27;;;;;;;;;;4969204;28;20050;-60
2022/07/03 01:35:21;;;;;;;11.07;8.87;;;;;;;;;;4969430;28;20083;-61
2022/07/03 01:37:48;;;;;;;16.23;10.50;;;;;;;;;;4969428;28;20099;-60
2022/07/03 01:40:15;;;;;;;12.93;8.87;;;;;;;;;;4969096;28;20050;-61
2022/07/03 01:42:42;;;;;;;18.70;10.07;;;;;;;;;;4968930;28;20050;-60
2022/07/03 01:45:09;;;;;;;14.70;10.57;;;;;;;;;;4968941;28;20047;-60
2022/07/03 01:47:36;;;;;;;15.03;10.67;;;;;;;;;;4970911;28;20082;-60
2022/07/03 01:50:02;;;;;;;13.07;10.30;;;;;;;;;;4972655;28;20130;-60
2022/07/03 01:52:32;;;;;;;15.17;11.20;;;;;;;;;;4972549;28;20085;-60
2022/07/03 01:55:01;;;;;;;10.97;9.53;;;;;;;;;;4972299;28;20456;-60
2022/07/03 01:57:41;;;;;;;11.47;10.30;;;;;;;;;;4964874;28;20505;-61
2022/07/03 02:00:08;;;;;;;14.00;10.40;;;;;;;;;;4971784;28;20126;-60
2022/07/03 02:02:34;;;;;;;11.73;10.50;;;;;;;;;;4972783;28;20386;-60
2022/07/03 02:05:03;;;;;;;15.23;12.40;;;;;;;;;;4972385;28;20046;-60
2022/07/03 02:07:29;;;;;;;12.60;11.30;;;;;;;;;;4964709;28;20038;-60
2022/07/03 02:09:58;;;;;;;15.83;10.50;;;;;;;;;;4972462;28;20046;-60
2022/07/03 02:12:27;;;;;;;12.73;11.43;;;;;;;;;;4971913;28;20070;-60
2022/07/03 02:15:00;;;;;;;13.63;12.03;;;;;;;;;;4972703;28;20089;-60
2022/07/03 02:17:27;;;;;;;21.50;14.17;;;;;;;;;;4971725;28;20126;-60
2022/07/03 02:19:56;;;;;;;19.97;15.13;;;;;;;;;;4971998;28;20406;-60
2022/07/03 02:22:26;;;;;;;21.53;19.17;;;;;;;;;;4972218;28;20065;-60
2022/07/03 02:24:52;;;;;;;17.07;15.20;;;;;;;;;;4972363;28;20093;-60
2022/07/03 02:27:23;;;;;;;17.17;14.97;;;;;;;;;;4971354;28;20038;-60
2022/07/03 02:29:55;;;;;;;24.07;21.67;;;;;;;;;;4971845;28;20412;-61
2022/07/03 02:32:22;;;;;;;16.60;14.93;;;;;;;;;;4971892;28;20394;-60
2022/07/03 02:35:09;;;;;;;17.50;13.60;;;;;;;;;;4971906;28;20294;-60
2022/07/03 02:37:54;;;;;;;14.57;13.07;;;;;;;;;;4971148;28;20049;-60
2022/07/03 02:40:23;;;;;;;21.37;17.10;;;;;;;;;;4971653;28;20555;-60
2022/07/03 02:42:50;;;;;;;13.07;10.83;;;;;;;;;;4971741;28;20679;-60
2022/07/03 02:45:18;;;;;;;14.03;12.63;;;;;;;;;;4971677;28;20050;-60
2022/07/03 02:47:47;;;;;;;13.90;12.50;;;;;;;;;;4972133;28;20045;-60
2022/07/03 02:50:16;;;;;;;16.73;15.03;;;;;;;;;;4971775;28;20406;-60
2022/07/03 02:52:45;;;;;;;12.10;10.73;;;;;;;;;;4970923;28;20042;-60
2022/07/03 02:55:30;;;;;;;15.97;13.03;;;;;;;;;;4972048;28;20082;-60
2022/07/03 02:58:11;;;;;;;21.63;19.23;;;;;;;;;;4963835;28;20057;-60
2022/07/03 03:00:39;;;;;;;23.77;19.73;;;;;;;;;;4971166;28;20065;-60
2022/07/03 03:03:06;;;;;;;18.93;16.07;;;;;;;;;;4971361;28;20082;-60
2022/07/03 03:05:46;;;;;;;23.37;19.60;;;;;;;;;;4971002;28;20413;-61
2022/07/03 03:08:19;;;;;;;21.30;17.60;;;;;;;;;;4971303;28;20066;-60
2022/07/03 03:10:48;;;;;;;18.75;14.95;;;;;;;;;;4971547;28;20051;-61
2022/07/03 03:13:16;;;;;;;18.80;16.90;;;;;;;;;;4971325;28;20046;-59
2022/07/03 03:16:02;;;;;;;16.10;14.43;;;;;;;;;;4971101;28;20119;-59
2022/07/03 03:18:29;;;;;;;18.17;12.90;;;;;;;;;;4961082;28;20516;-60
2022/07/03 03:21:03;;;;;;;18.87;12.97;;;;;;;;;;4970274;28;20047;-60
2022/07/03 03:23:32;;;;;;;16.00;13.32;;;;;;;;;;4971106;28;20047;-60
2022/07/03 03:25:59;;;;;;;16.83;15.20;;;;;;;;;;4971028;28;20074;-60
2022/07/03 03:28:25;;;;;;;15.40;13.80;;;;;;;;;;4970630;28;20178;-60
2022/07/03 03:30:51;;;;;;;21.50;19.20;;;;;;;;;;4971053;28;20058;-60
2022/07/03 03:33:17;;;;;;;16.77;13.70;;;;;;;;;;4970997;28;20568;-60
2022/07/03 03:35:43;;;;;;;21.57;18.17;;;;;;;;;;4970404;28;20498;-59
2022/07/03 03:38:09;;;;;;;16.30;14.63;;;;;;;;;;4970498;28;20042;-60
2022/07/03 03:40:36;;;;;;;20.40;17.90;;;;;;;;;;4970688;28;20046;-60
2022/07/03 03:43:02;;;;;;;22.63;20.20;;;;;;;;;;4969432;28;20043;-60
2022/07/03 03:45:28;;;;;;;21.40;19.00;;;;;;;;;;4967043;28;20045;-60
2022/07/03 03:47:55;;;;;;;19.30;17.43;;;;;;;;;;4963836;28;20676;-60
2022/07/03 03:50:21;;;;;;;16.50;14.13;;;;;;;;;;4968182;28;20050;-60
2022/07/03 03:52:47;;;;;;;16.87;14.97;;;;;;;;;;4967390;28;20130;-60
2022/07/03 03:55:13;;;;;;;18.00;15.50;;;;;;;;;;4969770;28;20043;-60
2022/07/03 03:57:39;;;;;;;17.90;15.40;;;;;;;;;;4966742;28;20047;-59
2022/07/03 04:00:05;;;;;;;22.77;17.07;;;;;;;;;;4966749;28;20045;-60
2022/07/03 04:02:32;;;;;;;23.70;16.83;;;;;;;;;;4966454;28;20043;-60
2022/07/03 04:04:58;;;;;;;20.93;17.47;;;;;;;;;;4970169;28;20416;-60
2022/07/03 04:07:24;;;;;;;18.30;16.43;;;;;;;;;;4969550;28;20121;-60
2022/07/03 04:09:50;;;;;;;21.27;19.20;;;;;;;;;;4969988;28;20102;-60
2022/07/03 04:12:16;;;;;;;23.93;21.40;;;;;;;;;;4969987;28;20074;-60
2022/07/03 04:14:42;;;;;;;18.63;15.87;;;;;;;;;;4969718;28;20129;-60
2022/07/03 04:17:08;;;;;;;16.60;14.77;;;;;;;;;;4969371;28;20042;-60
2022/07/03 04:19:34;;;;;;;15.93;14.27;;;;;;;;;;4969616;28;20042;-60
2022/07/03 04:22:00;;;;;;;17.27;13.77;;;;;;;;;;4970115;28;20064;-60
2022/07/03 04:24:26;;;;;;;16.80;15.10;;;;;;;;;;4969485;28;20050;-60
2022/07/03 04:26:52;;;;;;;19.27;14.73;;;;;;;;;;4969896;28;20466;-60
2022/07/03 04:29:18;;;;;;;16.70;15.10;;;;;;;;;;4969098;28;20047;-60
2022/07/03 04:31:44;;;;;;;20.40;15.20;;;;;;;;;;4969852;28;20413;-59
2022/07/03 04:34:11;;;;;;;15.83;14.23;;;;;;;;;;4969978;28;20049;-60
2022/07/03 04:36:37;;;;;;;15.67;13.90;;;;;;;;;;4969147;28;20090;-60
2022/07/03 04:39:03;;;;;;;17.67;15.87;;;;;;;;;;4969567;28;20046;-60
2022/07/03 04:41:29;;;;;;;17.30;14.00;;;;;;;;;;4968967;28;20121;-60
2022/07/03 04:43:55;;;;;;;15.87;13.67;;;;;;;;;;4969283;28;20093;-60
2022/07/03 04:46:21;;;;;;;18.17;16.37;;;;;;;;;;4969689;28;20043;-60
2022/07/03 04:48:47;;;;;;;21.23;18.80;;;;;;;;;;4968493;28;20062;-60
2022/07/03 04:51:13;;;;;;;19.77;15.03;;;;;;;;;;4969424;28;20039;-60
2022/07/03 04:53:39;;;;;;;16.67;15.03;;;;;;;;;;4968670;28;20473;-60
2022/07/03 04:56:05;;;;;;;16.83;15.13;;;;;;;;;;4968709;28;20049;-60
2022/07/03 04:58:31;;;;;;;15.10;12.87;;;;;;;;;;4968761;28;20042;-60
2022/07/03 05:00:57;;;;;;;16.67;15.00;;;;;;;;;;4961814;28;20416;-60
2022/07/03 05:03:23;;;;;;;18.17;16.37;;;;;;;;;;4969205;28;20043;-60
2022/07/03 05:05:49;;;;;;;16.60;14.90;;;;;;;;;;4968771;28;20049;-60
2022/07/03 05:08:15;;;;;;;19.37;16.70;;;;;;;;;;4968629;28;20039;-61
2022/07/03 05:10:41;;;;;;;19.50;17.20;;;;;;;;;;4968659;28;20522;-61
2022/07/03 05:13:07;;;;;;;16.57;12.47;;;;;;;;;;4968920;28;20049;-60
2022/07/03 05:15:33;;;;;;;20.13;15.93;;;;;;;;;;4968819;28;20109;-60
2022/07/03 05:17:59;;;;;;;15.13;13.63;;;;;;;;;;4968993;28;20596;-60
2022/07/03 05:20:28;;;;;;;18.23;12.20;;;;;;;;;;4968615;28;20055;-60
2022/07/03 05:23:03;;;;;;;15.50;13.67;;;;;;;;;;4971647;28;20148;-60
2022/07/03 05:25:30;;;;;;;19.33;16.37;;;;;;;;;;4972500;28;20041;-60
2022/07/03 05:27:56;;;;;;;19.37;17.47;;;;;;;;;;4963424;28;20051;-60
2022/07/03 05:30:23;;;;;;;17.47;15.70;;;;;;;;;;4971360;28;20199;-60
2022/07/03 05:32:49;;;;;;;17.83;16.03;;;;;;;;;;4971929;28;20046;-60
2022/07/03 05:35:15;;;;;;;21.43;19.23;;;;;;;;;;4971460;28;20124;-60
2022/07/03 05:37:41;;;;;;;16.60;13.83;;;;;;;;;;4969362;28;20096;-60
2022/07/03 05:40:08;;;;;;;15.73;14.23;;;;;;;;;;4971806;28;20050;-60
2022/07/03 05:42:34;;;;;;;13.47;12.07;;;;;;;;;;4969362;28;20042;-60
2022/07/03 05:45:01;;;;;;;13.60;11.40;;;;;;;;;;4967260;28;20055;-60
2022/07/03 05:47:27;;;;;;;11.87;10.33;;;;;;;;;;4972562;28;20549;-60
2022/07/03 05:49:53;;;;;;;10.17;8.73;;;;;;;;;;4968986;28;20782;-60
2022/07/03 05:52:20;;;;;;;13.23;8.47;;;;;;;;;;4972274;28;20048;-60
2022/07/03 05:54:46;;;;;;;9.13;7.60;;;;;;;;;;4971658;28;20121;-60
2022/07/03 05:57:12;;;;;;;9.00;7.17;;;;;;;;;;4971634;28;20053;-60
2022/07/03 05:59:39;;;;;;;7.83;6.43;;;;;;;;;;4971844;28;20457;-61
2022/07/03 06:02:05;;;;;;;8.03;6.30;;;;;;;;;;4971955;28;20077;-61
2022/07/03 06:04:31;;;;;;;6.10;4.87;;;;;;;;;;4972229;28;20045;-61
2022/07/03 06:06:57;;;;;;;6.77;4.10;;;;;;;;;;4972483;28;20053;-60
2022/07/03 06:09:23;;;;;;;5.07;4.10;;;;;;;;;;4972454;28;20082;-60
2022/07/03 06:11:49;;;;;;;8.43;4.73;;;;;;;;;;4972076;28;20082;-60
2022/07/03 06:14:16;;;;;;;5.33;4.83;;;;;;;;;;4972248;28;20632;-60
2022/07/03 06:16:42;;;;;;;10.23;4.57;;;;;;;;;;4972014;28;20049;-61
2022/07/03 06:19:08;;;;;;;6.67;4.40;;;;;;;;;;4972310;28;20070;-61
2022/07/03 06:21:34;;;;;;;9.23;4.23;;;;;;;;;;4973390;28;20789;-60
2022/07/03 06:24:00;;;;;;;7.20;4.20;;;;;;;;;;4991525;28;20054;-60
2022/07/03 06:26:28;;;;;;;5.63;3.83;;;;;;;;;;4991267;28;20050;-61
2022/07/03 06:28:54;;;;;;;7.87;4.30;;;;;;;;;;4991180;28;20050;-61
2022/07/03 06:31:20;;;;;;;6.23;3.83;;;;;;;;;;4990575;28;20508;-60
2022/07/03 06:33:46;;;;;;;6.30;3.47;;;;;;;;;;4989413;28;20038;-60
2022/07/03 06:36:12;;;;;;;6.60;3.63;;;;;;;;;;4991209;28;20034;-60
2022/07/03 06:38:38;;;;;;;6.67;3.27;;;;;;;;;;4990731;28;20120;-61
2022/07/03 06:41:04;;;;;;;6.20;3.07;;;;;;;;;;4990566;28;20487;-61
2022/07/03 06:43:31;;;;;;;4.47;2.90;;;;;;;;;;4989624;28;20038;-60
2022/07/03 06:45:57;;;;;;;5.53;2.53;;;;;;;;;;4989723;28;20145;-60
2022/07/03 06:48:23;;;;;;;7.43;2.70;;;;;;;;;;4990816;28;20559;-60
2022/07/03 06:50:49;;;;;;;4.30;2.53;;;;;;;;;;4982741;28;20034;-60
2022/07/03 06:53:15;;;;;;;5.23;1.87;;;;;;;;;;4990322;28;20116;-61
2022/07/03 06:55:41;;;;;;;4.77;1.93;;;;;;;;;;4989672;28;20492;-60
2022/07/03 06:58:07;;;;;;;3.27;2.00;;;;;;;;;;4990516;28;20466;-60
2022/07/03 07:00:33;;;;;;;4.53;2.03;;;;;;;;;;4989978;28;20534;-61
2022/07/03 07:02:59;;;;;;;3.57;1.90;;;;;;;;;;4989933;28;20500;-60
2022/07/03 07:05:25;;;;;;;6.93;2.30;;;;;;;;;;4990790;28;20044;-60
2022/07/03 07:07:51;;;;;;;5.00;1.70;;;;;;;;;;4990542;28;20050;-60
2022/07/03 07:10:17;;;;;;;3.20;1.30;;;;;;;;;;4981267;28;20046;-61
2022/07/03 07:12:43;;;;;;;5.43;1.80;;;;;;;;;;4989659;28;20056;-60
2022/07/03 07:15:09;;;;;;;3.73;1.47;;;;;;;;;;4989526;28;20053;-60
2022/07/03 07:17:35;;;;;;;6.90;1.70;;;;;;;;;;4989857;28;20053;-61
2022/07/03 07:20:01;;;;;;;3.17;1.30;;;;;;;;;;4990208;28;20417;-60
2022/07/03 07:22:27;;;;;;;5.37;1.50;;;;;;;;;;4989937;28;20394;-60
2022/07/03 07:24:53;;;;;;;3.67;1.77;;;;;;;;;;4990314;28;20470;-60
2022/07/03 07:27:20;;;;;;;7.63;1.70;;;;;;;;;;4989039;28;20046;-61
2022/07/03 07:29:46;;;;;;;4.80;1.60;;;;;;;;;;4989952;28;20050;-60
2022/07/03 07:32:12;;;;;;;4.10;1.70;;;;;;;;;;4989924;28;20144;-60
2022/07/03 07:34:38;;;;;;;6.53;2.03;;;;;;;;;;4989574;28;20417;-60
2022/07/03 07:37:04;;;;;;;3.30;1.60;;;;;;;;;;4989156;28;20088;-61
2022/07/03 07:39:31;;;;;;;5.33;1.00;;;;;;;;;;4989720;28;20062;-60
2022/07/03 07:41:57;;;;;;;3.40;1.70;;;;;;;;;;4988134;28;20050;-61
2022/07/03 07:44:23;;;;;;;3.37;1.17;;;;;;;;;;4988492;28;20043;-61
2022/07/03 07:46:49;;;;;;;2.37;1.30;;;;;;;;;;4988514;28;20038;-61
2022/07/03 07:49:15;;;;;;;4.13;1.33;;;;;;;;;;4988518;28;20039;-61
2022/07/03 07:51:41;;;;;;;2.70;1.30;;;;;;;;;;4985262;28;20034;-60
2022/07/03 07:54:08;;;;;;;3.43;1.43;;;;;;;;;;4988367;28;20144;-60
2022/07/03 07:56:34;;;;;;;2.70;0.90;;;;;;;;;;4988569;28;20428;-60
2022/07/03 07:59:00;;;;;;;2.47;0.73;;;;;;;;;;4988898;28;20434;-60
2022/07/03 08:06:56;;;;;;;2.97;1.13;;;;;;;;;;4983688;28;20046;-61
2022/07/03 08:09:22;;;;;;;4.13;1.23;;;;;;;;;;4989308;28;20088;-60
2022/07/03 08:11:48;;;;;;;3.70;1.10;;;;;;;;;;4988864;28;20065;-60
2022/07/03 08:14:14;;;;;;;4.47;1.33;;;;;;;;;;4985439;28;20089;-60
2022/07/03 08:16:41;;;;;;;4.37;1.20;;;;;;;;;;4986463;28;20042;-60
2022/07/03 08:19:07;;;;;;;4.07;1.13;;;;;;;;;;4988349;28;20104;-61
2022/07/03 08:21:33;;;;;;;5.93;1.60;;;;;;;;;;4978156;28;20387;-61
2022/07/03 08:23:59;;;;;;;2.93;1.37;;;;;;;;;;4988077;28;20046;-60
2022/07/03 08:26:25;;;;;;;2.87;1.37;;;;;;;;;;4983037;28;20038;-60
2022/07/03 08:28:51;;;;;;;4.27;0.90;;;;;;;;;;4989170;28;20089;-60
2022/07/03 08:31:17;;;;;;;4.50;1.37;;;;;;;;;;4989569;28;20046;-61
2022/07/03 08:33:43;;;;;;;3.23;1.20;;;;;;;;;;4987777;28;20050;-60
2022/07/03 08:36:09;;;;;;;2.13;0.80;;;;;;;;;;4988127;28;20046;-60
2022/07/03 08:38:36;;;;;;;6.95;1.20;;;;;;;;;;4983711;28;20057;-60
2022/07/03 08:41:03;;;;;;;6.90;1.17;;;;;;;;;;4988708;28;20038;-60
2022/07/03 08:43:29;;;;;;;5.85;1.00;;;;;;;;;;4988712;28;20045;-60
2022/07/03 08:45:56;;;;;;;4.90;1.00;;;;;;;;;;4987672;28;20141;-61
2022/07/03 08:48:22;;;;;;;4.35;1.33;;;;;;;;;;4988443;28;20038;-60
2022/07/03 08:50:51;;;;;;;5.30;1.02;;;;;;;;;;4989986;28;20098;-61
2022/07/03 08:53:17;;;;;;;5.88;1.20;;;;;;;;;;4989161;28;20523;-61
2022/07/03 08:55:44;;;;;;;3.80;1.30;;;;;;;;;;4988066;28;20046;-60
2022/07/03 08:58:12;;;;;;;4.35;1.15;;;;;;;;;;4988014;28;20050;-60
2022/07/03 09:00:38;;;;;;;4.57;1.20;;;;;;;;;;4985417;28;20516;-61
2022/07/03 09:03:09;;;;;;;2.72;0.93;;;;;;;;;;4988823;28;20049;-60
2022/07/03 09:05:35;;;;;;;6.10;1.17;;;;;;;;;;4987982;28;20047;-60
2022/07/03 09:08:02;;;;;;;5.03;1.00;;;;;;;;;;4986842;28;20038;-60
2022/07/03 09:10:28;;;;;;;2.58;0.90;;;;;;;;;;4987598;28;20050;-60
2022/07/03 09:12:55;;;;;;;2.92;0.70;;;;;;;;;;4983200;28;20470;-60
2022/07/03 09:15:22;;;;;;;2.03;0.85;;;;;;;;;;4987758;28;20048;-60
2022/07/03 09:18:04;;;;;;;2.30;0.85;;;;;;;;;;4988364;28;20420;-60
2022/07/03 09:20:32;;;;;;;3.92;1.08;;;;;;;;;;4988624;28;20046;-60
2022/07/03 09:23:09;;;;;;;2.78;0.70;;;;;;;;;;4988245;28;20050;-60
2022/07/03 09:25:35;;;;;;;2.30;0.88;;;;;;;;;;4986629;28;20074;-60
2022/07/03 09:28:01;;;;;;;2.78;0.60;;;;;;;;;;4988011;28;20046;-60
2022/07/03 09:30:27;;;;;;;1.80;0.60;;;;;;;;;;4988529;28;20050;-60
2022/07/03 09:32:53;;;;;;;2.35;0.80;;;;;;;;;;4989064;28;20043;-60
2022/07/03 09:35:19;;;;;;;2.05;0.77;;;;;;;;;;4986949;28;20046;-60
2022/07/03 09:38:04;;;;;;;1.55;0.65;;;;;;;;;;4988096;28;20161;-60
2022/07/03 09:40:50;;;;;;;3.55;0.95;;;;;;;;;;4983274;28;20096;-60
2022/07/03 09:43:22;;;;;;;2.13;0.63;;;;;;;;;;4988132;28;20564;-60
2022/07/03 09:45:52;;;;;;;3.13;0.77;;;;;;;;;;4986856;28;20034;-60
2022/07/03 09:48:25;;;;;;;2.35;0.65;;;;;;;;;;4983708;28;20501;-60
2022/07/03 09:51:10;;;;;;;2.38;0.57;;;;;;;;;;4983381;28;20035;-60
2022/07/03 09:53:45;;;;;;;3.65;0.98;;;;;;;;;;4980818;28;20200;-60
2022/07/03 09:56:11;;;;;;;2.65;0.70;;;;;;;;;;4982235;28;20054;-60
2022/07/03 09:58:38;;;;;;;1.98;0.57;;;;;;;;;;4978907;28;20051;-60
2022/07/03 10:01:19;;;;;;;4.03;0.80;;;;;;;;;;4981997;28;20412;-60
2022/07/03 10:03:47;;;;;;;4.25;0.90;;;;;;;;;;4986444;28;20128;-60
2022/07/03 10:06:13;;;;;;;3.35;0.88;;;;;;;;;;4985254;28;20129;-60
2022/07/03 10:08:40;;;;;;;3.28;0.70;;;;;;;;;;4987997;28;20157;-60
2022/07/03 10:11:06;;;;;;;1.88;0.88;;;;;;;;;;4990650;28;20046;-60
2022/07/03 10:13:33;;;;;;;2.63;0.93;;;;;;;;;;4990085;28;20166;-60
2022/07/03 10:16:00;;;;;;;2.13;0.77;;;;;;;;;;4991513;28;20042;-60
2022/07/03 10:18:30;;;;;;;2.47;1.05;;;;;;;;;;4986916;28;20125;-61
2022/07/03 10:20:59;;;;;;;7.88;1.17;;;;;;;;;;4988894;28;20101;-60
2022/07/03 10:23:27;;;;;;;4.25;1.00;;;;;;;;;;4985833;28;20136;-60
2022/07/03 10:25:54;;;;;;;3.15;0.73;;;;;;;;;;4985884;28;20052;-60
2022/07/03 10:28:20;;;;;;;3.38;1.20;;;;;;;;;;4982603;28;20090;-60
2022/07/03 10:30:49;;;;;;;3.35;0.93;;;;;;;;;;4980238;28;20392;-60
2022/07/03 10:33:15;;;;;;;2.08;0.80;;;;;;;;;;4980715;28;21235;-60
2022/07/03 10:35:43;;;;;;;2.60;0.80;;;;;;;;;;4985563;28;20148;-60
2022/07/03 10:38:18;;;;;;;2.65;0.70;;;;;;;;;;4983256;28;20046;-60
2022/07/03 10:46:24;;;;;;;1.73;0.63;;;;;;;;;;4982596;28;20047;-60
2022/07/03 10:48:51;;;;;;;3.90;0.70;;;;;;;;;;4984030;28;20060;-60
2022/07/03 10:51:17;;;;;;;4.15;0.93;;;;;;;;;;4989295;28;20070;-60
2022/07/03 10:53:43;;;;;;;2.83;0.80;;;;;;;;;;4990609;28;20038;-60
2022/07/03 10:56:09;;;;;;;4.10;0.82;;;;;;;;;;4990814;28;20056;-60
2022/07/03 10:58:53;;;;;;;1.40;0.65;;;;;;;;;;4989346;28;20073;-60
2022/07/03 11:01:26;;;;;;;3.08;0.95;;;;;;;;;;4985777;28;20054;-60
2022/07/03 11:03:54;;;;;;;5.50;0.68;;;;;;;;;;4986165;28;20132;-60
2022/07/03 11:06:20;;;;;;;3.88;1.10;;;;;;;;;;4981454;28;20474;-62
2022/07/03 11:09:03;;;;;;;3.15;0.70;;;;;;;;;;4989143;28;20425;-60
2022/07/03 11:11:55;;;;;;;2.53;0.70;;;;;;;;;;4988916;28;20132;-60
2022/07/03 11:14:25;;;;;;;1.63;0.50;;;;;;;;;;4989453;28;20042;-61
2022/07/03 11:17:11;;;;;;;1.55;0.65;;;;;;;;;;4990541;28;20759;-60
2022/07/03 11:19:37;;;;;;;2.47;0.77;;;;;;;;;;4989348;28;20116;-60
2022/07/03 11:22:05;;;;;;;2.58;0.70;;;;;;;;;;4989306;28;20068;-60
2022/07/03 11:24:36;;;;;;;3.53;0.75;;;;;;;;;;4987685;28;20043;-60
2022/07/03 11:27:18;;;;;;;2.10;0.70;;;;;;;;;;4990476;28;20053;-60
2022/07/03 11:29:49;;;;;;;2.28;0.70;;;;;;;;;;4982396;28;20089;-60
2022/07/03 11:32:34;;;;;;;1.58;0.65;;;;;;;;;;4989523;28;20128;-60
2022/07/03 11:35:00;;;;;;;3.03;0.80;;;;;;;;;;4990088;28;20064;-61
2022/07/03 11:37:26;;;;;;;3.65;0.60;;;;;;;;;;4989788;28;20496;-60
2022/07/03 11:39:53;;;;;;;2.90;0.88;;;;;;;;;;4988923;28;20034;-61
2022/07/03 11:42:19;;;;;;;2.75;0.85;;;;;;;;;;4989022;28;20390;-61
2022/07/03 11:44:45;;;;;;;4.30;1.40;;;;;;;;;;4980266;28;20088;-60
2022/07/03 11:47:11;;;;;;;2.83;1.17;;;;;;;;;;4999949;28;20521;-60
2022/07/03 11:49:49;;;;;;;3.33;1.00;;;;;;;;;;4989196;28;20046;-60
2022/07/03 11:52:15;;;;;;;3.83;1.48;;;;;;;;;;4975890;28;20054;-60
2022/07/03 11:54:51;;;;;;;4.10;1.10;;;;;;;;;;4982425;28;20045;-60
2022/07/03 11:57:17;;;;;;;6.53;1.40;;;;;;;;;;4988761;28;20039;-60
2022/07/03 11:59:43;;;;;;;3.10;1.17;;;;;;;;;;4988514;28;20043;-61
2022/07/03 12:02:09;;;;;;;3.47;1.20;;;;;;;;;;4982677;28;20046;-60
2022/07/03 12:04:35;;;;;;;3.67;1.10;;;;;;;;;;4988659;28;20125;-60
2022/07/03 12:07:01;;;;;;;3.03;1.00;;;;;;;;;;4988759;28;20046;-61
2022/07/03 12:09:35;;;;;;;3.03;1.27;;;;;;;;;;4988587;28;20067;-61
2022/07/03 12:12:04;;;;;;;4.68;1.60;;;;;;;;;;4986900;28;20933;-61
2022/07/03 12:14:34;;;;;;;3.10;1.10;;;;;;;;;;4986265;28;20058;-60
2022/07/03 12:17:00;;;;;;;3.05;1.08;;;;;;;;;;4984425;28;20058;-60
2022/07/03 12:19:26;;;;;;;4.07;1.00;;;;;;;;;;4989741;28;20047;-60
2022/07/03 12:21:52;;;;;;;3.78;1.05;;;;;;;;;;4988620;28;20061;-60
2022/07/03 12:24:18;;;;;;;4.07;1.02;;;;;;;;;;4994436;28;20518;-60
2022/07/03 12:26:44;;;;;;;4.10;1.10;;;;;;;;;;4987815;28;20069;-60
2022/07/03 12:29:13;;;;;;;3.10;1.15;;;;;;;;;;4991838;28;20046;-61
2022/07/03 12:31:43;;;;;;;4.72;1.17;;;;;;;;;;4987832;28;20612;-61
2022/07/03 12:34:11;;;;;;;6.13;1.60;;;;;;;;;;4988657;28;20129;-60
2022/07/03 12:36:37;;;;;;;5.70;1.20;;;;;;;;;;4988434;28;20105;-60
2022/07/03 12:39:03;;;;;;;4.53;1.17;;;;;;;;;;4984314;28;20038;-60
2022/07/03 12:41:30;;;;;;;2.88;1.00;;;;;;;;;;4990243;28;20046;-61
2022/07/03 12:43:57;;;;;;;2.80;1.20;;;;;;;;;;4988771;28;20121;-61
2022/07/03 12:46:24;;;;;;;5.53;1.35;;;;;;;;;;4988894;28;20132;-61
2022/07/03 12:48:51;;;;;;;3.75;0.90;;;;;;;;;;4982953;28;20156;-61
2022/07/03 12:51:37;;;;;;;3.97;0.80;;;;;;;;;;4989662;28;20045;-61
2022/07/03 12:54:03;;;;;;;3.72;0.95;;;;;;;;;;4984058;28;20046;-61
2022/07/03 12:56:29;;;;;;;3.45;0.85;;;;;;;;;;4988256;28;20093;-61
2022/07/03 13:01:40;;;;;;;4.40;1.40;;;;;;;;;;4988293;28;20054;-61
2022/07/03 13:04:08;;;;;;;2.15;0.93;;;;;;;;;;4989063;28;20049;-61
2022/07/03 13:06:34;;;;;;;2.78;0.90;;;;;;;;;;4988457;28;20522;-61
2022/07/03 13:09:02;;;;;;;3.20;0.80;;;;;;;;;;4989052;28;20081;-60
2022/07/03 13:11:28;;;;;;;3.72;1.25;;;;;;;;;;4988574;28;20042;-61
2022/07/03 13:13:55;;;;;;;4.03;1.30;;;;;;;;;;4988020;28;20077;-61
2022/07/03 13:16:28;;;;;;;7.93;1.20;;;;;;;;;;4978068;28;20050;-60
2022/07/03 13:19:00;;;;;;;2.97;1.00;;;;;;;;;;4988403;28;20120;-61
2022/07/03 13:21:26;;;;;;;;;;;;;;;;;;4988484;28;20101;-60
2022/07/03 13:23:52;;;;;;;13.85;1.95;;;;;;;;;;4987006;28;19929;-60
2022/07/03 13:26:18;;;;;;;126.70;10.60;;;;;;;;;;4982645;28;20043;-67
2022/07/03 13:28:44;;;;;;;51.58;8.82;;;;;;;;;;4987221;28;20050;-67
2022/07/03 13:31:10;;;;;;;2.83;0.63;;;;;;;;;;4982740;28;20042;-69
2022/07/03 13:33:36;;;;;;;0.40;0.33;;;;;;;;;;4989122;28;20759;-67
2022/07/03 13:36:02;;;;;;;0.07;0.07;;;;;;;;;;4982869;28;20046;-63
2022/07/03 13:38:28;;;;;;;0.07;0.07;;;;;;;;;;4988875;28;20148;-62
2022/07/03 13:40:54;;;;;;;0.27;0.27;;;;;;;;;;4987611;28;20073;-63
2022/07/03 13:43:20;;;;;;;0.00;0.00;;;;;;;;;;4988856;28;20166;-63
2022/07/03 13:45:46;;;;;;;0.00;0.00;;;;;;;;;;4991536;28;20130;-62
2022/07/03 13:48:12;;;;;;;0.00;0.00;;;;;;;;;;4992664;28;20049;-62
2022/07/03 13:50:40;;;;;;;0.10;0.10;;;;;;;;;;4992235;28;20049;-62
2022/07/03 13:53:06;;;;;;;0.00;0.00;;;;;;;;;;4992425;28;20046;-61
2022/07/03 13:55:32;;;;;;;0.10;0.10;;;;;;;;;;4992760;28;20042;-61
2022/07/03 13:57:58;;;;;;;0.00;0.00;;;;;;;;;;4992077;28;20065;-62
2022/07/03 14:00:24;;;;;;;0.10;0.10;;;;;;;;;;4992472;28;20107;-62
2022/07/03 14:02:50;;;;;;;0.00;0.00;;;;;;;;;;4990976;28;20058;-62
2022/07/03 14:05:16;;;;;;;0.00;0.00;;;;;;;;;;4992152;28;20713;-62
2022/07/03 14:07:42;;;;;;;0.00;0.00;;;;;;;;;;4991109;28;20034;-62
2022/07/03 14:10:08;;;;;;;0.20;0.20;;;;;;;;;;4983349;28;20520;-62
2022/07/03 14:12:34;;;;;;;0.00;0.00;;;;;;;;;;4992004;28;20794;-62
2022/07/03 14:15:01;;;;;;;0.00;0.00;;;;;;;;;;4991788;28;20042;-62
2022/07/03 14:17:27;;;;;;;0.00;0.00;;;;;;;;;;4991992;28;20505;-62
2022/07/03 14:19:53;;;;;;;78.77;7.60;;;;;;;;;;4990968;28;21617;-62
2022/07/03 14:22:20;;;;;;;620.80;63.30;;;;;;;;;;4991517;28;20526;-64
2022/07/03 14:24:46;;;;;;;4.57;1.90;;;;;;;;;;4991644;28;20042;-62
2022/07/03 14:32:41;;;;;;;3.47;1.63;;;;;;;;;;4991561;28;20125;-62
2022/07/03 14:35:07;;;;;;;4.70;1.80;;;;;;;;;;4991541;28;20062;-62
2022/07/03 14:37:33;;;;;;;3.95;1.27;;;;;;;;;;4990660;28;20373;-63
2022/07/03 14:39:59;;;;;;;3.50;1.10;;;;;;;;;;4990814;28;20046;-62
2022/07/03 14:42:25;;;;;;;3.45;1.20;;;;;;;;;;4998032;28;20504;-62
2022/07/03 14:44:52;;;;;;;2.95;1.52;;;;;;;;;;4991967;28;20464;-62
2022/07/03 14:47:18;;;;;;;3.10;1.38;;;;;;;;;;4991291;28;20053;-62
2022/07/03 14:49:44;;;;;;;5.18;1.70;;;;;;;;;;4988921;28;20034;-62
2022/07/03 14:52:10;;;;;;;2.70;1.63;;;;;;;;;;4991430;28;20118;-62
2022/07/03 14:54:37;;;;;;;3.90;1.50;;;;;;;;;;4987912;28;20528;-62
2022/07/03 14:57:07;;;;;;;4.50;1.67;;;;;;;;;;4990395;28;20042;-62
2022/07/03 14:59:55;;;;;;;4.87;1.53;;;;;;;;;;4992592;28;20368;-62